createdAt,value
2016-06-01T00:00:09.178Z,20.2
2016-06-01T00:00:19.194Z,20.2
2016-06-01T00:00:29.178Z,20.2
2016-06-01T00:00:39.178Z,20.1
2016-06-01T00:00:49.260Z,20
2016-06-01T00:00:59.072Z,20
2016-06-01T00:01:09.181Z,20
2016-06-01T00:01:19.181Z,20.1
2016-06-01T00:01:29.166Z,20
2016-06-01T00:01:39.166Z,20
2016-06-01T00:01:49.247Z,19.9
2016-06-01T00:01:59.169Z,19.8
2016-06-01T00:02:09.200Z,19.8
2016-06-01T00:02:19.184Z,19.8
2016-06-01T00:02:29.153Z,19.8
2016-06-01T00:02:39.153Z,19.8
2016-06-01T00:02:49.219Z,19.9
2016-06-01T00:02:59.156Z,19.8
2016-06-01T00:03:09.141Z,19.8
2016-06-01T00:03:19.016Z,19.8
2016-06-01T00:03:29.187Z,19.7
2016-06-01T00:03:39.141Z,19.7
2016-06-01T00:03:49.158Z,19.6
2016-06-01T00:03:59.158Z,19.5
2016-06-01T00:04:09.205Z,19.6
2016-06-01T00:04:19.127Z,19.6
2016-06-01T00:04:29.143Z,19.7
2016-06-01T00:04:39.127Z,19.7
2016-06-01T00:04:49.130Z,19.7
2016-06-01T00:04:59.052Z,19.7
2016-06-01T00:05:09.130Z,19.8
2016-06-01T00:05:19.114Z,19.8
2016-06-01T00:05:29.005Z,19.8
2016-06-01T00:05:39.052Z,19.9
2016-06-01T00:05:49.116Z,19.9
2016-06-01T00:05:59.116Z,19.9
2016-06-01T00:06:09.194Z,19.9
2016-06-01T00:06:18.804Z,19.8
2016-06-01T00:06:29.132Z,19.8
2016-06-01T00:06:38.991Z,19.9
2016-06-01T00:06:49.151Z,19.9
2016-06-01T00:06:59.104Z,19.9
2016-06-01T00:07:09.072Z,19.9
2016-06-01T00:07:19.104Z,19.9
2016-06-01T00:07:29.166Z,19.9
2016-06-01T00:07:38.776Z,20
2016-06-01T00:07:48.935Z,19.9
2016-06-01T00:07:59.075Z,19.9
2016-06-01T00:08:09.169Z,19.9
2016-06-01T00:08:19.091Z,19.9
2016-06-01T00:08:29.075Z,19.8
2016-06-01T00:08:38.919Z,19.8
2016-06-01T00:08:49.249Z,19.9
2016-06-01T00:08:59.765Z,19.8
2016-06-01T00:09:10.343Z,19.9
2016-06-01T00:09:19.515Z,19.9
2016-06-01T00:09:29.156Z,19.9
2016-06-01T00:09:39.062Z,20
2016-06-01T00:09:49.087Z,19.9
2016-06-01T00:09:59.071Z,20
2016-06-01T00:10:09.087Z,20.1
2016-06-01T00:10:18.977Z,20.1
2016-06-01T00:10:28.946Z,19.9
2016-06-01T00:10:39.071Z,20
2016-06-01T00:10:49.085Z,19.9
2016-06-01T00:10:59.069Z,20
2016-06-01T00:11:09.069Z,19.8
2016-06-01T00:11:19.116Z,19.9
2016-06-01T00:11:29.085Z,19.7
2016-06-01T00:11:39.069Z,19.8
2016-06-01T00:11:48.941Z,19.6
2016-06-01T00:11:59.097Z,19.6
2016-06-01T00:12:09.097Z,19.6
2016-06-01T00:12:19.113Z,19.7
2016-06-01T00:12:29.081Z,19.7
2016-06-01T00:12:39.097Z,19.6
2016-06-01T00:12:49.127Z,19.7
2016-06-01T00:12:59.111Z,19.7
2016-06-01T00:13:09.111Z,19.6
2016-06-01T00:13:18.955Z,19.7
2016-06-01T00:13:29.096Z,19.6
2016-06-01T00:13:39.111Z,19.6
2016-06-01T00:13:49.124Z,19.7
2016-06-01T00:13:59.139Z,19.6
2016-06-01T00:14:08.999Z,19.6
2016-06-01T00:14:19.061Z,19.5
2016-06-01T00:14:29.108Z,19.6
2016-06-01T00:14:39.124Z,19.5
2016-06-01T00:14:48.968Z,19.4
2016-06-01T00:14:59.124Z,19.2
2016-06-01T00:15:09.155Z,19.3
2016-06-01T00:15:19.108Z,19.2
2016-06-01T00:15:29.140Z,19.2
2016-06-01T00:15:38.952Z,19.2
2016-06-01T00:15:49.119Z,19.2
2016-06-01T00:15:58.963Z,19.2
2016-06-01T00:16:09.119Z,19.3
2016-06-01T00:16:19.104Z,19.3
2016-06-01T00:16:29.119Z,19.3
2016-06-01T00:16:38.948Z,19.3
2016-06-01T00:16:48.976Z,19.4
2016-06-01T00:16:59.117Z,19.5
2016-06-01T00:17:09.257Z,19.5
2016-06-01T00:17:18.804Z,19.6
2016-06-01T00:17:29.117Z,19.6
2016-06-01T00:17:39.101Z,19.6
2016-06-01T00:17:49.394Z,19.6
2016-06-01T00:17:59.098Z,19.6
2016-06-01T00:18:08.957Z,19.7
2016-06-01T00:18:18.941Z,19.6
2016-06-01T00:18:29.098Z,19.6
2016-06-01T00:18:39.113Z,19.6
2016-06-01T00:18:49.110Z,19.7
2016-06-01T00:18:59.110Z,19.7
2016-06-01T00:19:09.094Z,19.7
2016-06-01T00:19:19.094Z,19.7
2016-06-01T00:19:28.938Z,19.7
2016-06-01T00:19:39.078Z,19.6
2016-06-01T00:19:49.102Z,19.7
2016-06-01T00:19:59.102Z,19.7
2016-06-01T00:20:09.102Z,19.7
2016-06-01T00:20:18.946Z,19.7
2016-06-01T00:20:28.930Z,19.8
2016-06-01T00:20:39.071Z,19.8
2016-06-01T00:20:49.077Z,19.8
2016-06-01T00:20:59.092Z,19.9
2016-06-01T00:21:09.077Z,19.9
2016-06-01T00:21:19.061Z,19.9
2016-06-01T00:21:29.092Z,19.9
2016-06-01T00:21:39.077Z,19.7
2016-06-01T00:21:48.942Z,19.8
2016-06-01T00:21:59.067Z,19.8
2016-06-01T00:22:08.911Z,19.9
2016-06-01T00:22:18.911Z,19.8
2016-06-01T00:22:29.114Z,19.9
2016-06-01T00:22:39.051Z,19.9
2016-06-01T00:22:48.917Z,19.8
2016-06-01T00:22:59.104Z,19.9
2016-06-01T00:23:09.073Z,20
2016-06-01T00:23:19.589Z,19.9
2016-06-01T00:23:29.073Z,19.8
2016-06-01T00:23:39.323Z,19.9
2016-06-01T00:23:50.393Z,20
2016-06-01T00:23:59.080Z,20
2016-06-01T00:24:08.908Z,20
2016-06-01T00:24:19.033Z,19.9
2016-06-01T00:24:29.221Z,20
2016-06-01T00:24:39.033Z,19.9
2016-06-01T00:24:49.083Z,20
2016-06-01T00:24:59.052Z,20
2016-06-01T00:25:09.052Z,19.9
2016-06-01T00:25:19.036Z,20
2016-06-01T00:25:29.052Z,19.9
2016-06-01T00:25:38.880Z,20
2016-06-01T00:25:49.056Z,20
2016-06-01T00:25:58.728Z,20
2016-06-01T00:26:09.025Z,20
2016-06-01T00:26:19.009Z,20
2016-06-01T00:26:29.025Z,20
2016-06-01T00:26:39.009Z,20.1
2016-06-01T00:26:49.013Z,20
2016-06-01T00:26:59.013Z,20.1
2016-06-01T00:27:09.044Z,20.1
2016-06-01T00:27:18.857Z,20.1
2016-06-01T00:27:29.013Z,20.1
2016-06-01T00:27:38.997Z,20.1
2016-06-01T00:27:48.845Z,20
2016-06-01T00:27:58.845Z,20.1
2016-06-01T00:28:09.017Z,20
2016-06-01T00:28:18.986Z,20
2016-06-01T00:28:29.033Z,20
2016-06-01T00:28:38.845Z,20
2016-06-01T00:28:48.990Z,19.9
2016-06-01T00:28:58.990Z,20
2016-06-01T00:29:09.021Z,20
2016-06-01T00:29:18.974Z,19.9
2016-06-01T00:29:29.068Z,19.9
2016-06-01T00:29:38.974Z,20
2016-06-01T00:29:48.993Z,19.9
2016-06-01T00:29:58.977Z,20
2016-06-01T00:30:08.993Z,20
2016-06-01T00:30:18.961Z,20
2016-06-01T00:30:28.977Z,19.9
2016-06-01T00:30:38.961Z,20
2016-06-01T00:30:49.027Z,20
2016-06-01T00:30:58.964Z,20
2016-06-01T00:31:08.996Z,20.1
2016-06-01T00:31:18.808Z,20
2016-06-01T00:31:29.011Z,20
2016-06-01T00:31:38.949Z,20
2016-06-01T00:31:48.983Z,19.9
2016-06-01T00:31:58.936Z,19.8
2016-06-01T00:32:08.796Z,19.8
2016-06-01T00:32:18.671Z,19.9
2016-06-01T00:32:29.030Z,19.9
2016-06-01T00:32:38.780Z,19.9
2016-06-01T00:32:48.877Z,19.9
2016-06-01T00:32:58.939Z,19.8
2016-06-01T00:33:08.924Z,19.9
2016-06-01T00:33:18.924Z,20
2016-06-01T00:33:28.845Z,19.9
2016-06-01T00:33:38.924Z,19.9
2016-06-01T00:33:48.786Z,19.9
2016-06-01T00:33:58.927Z,19.8
2016-06-01T00:34:08.927Z,19.8
2016-06-01T00:34:18.895Z,19.9
2016-06-01T00:34:28.911Z,19.9
2016-06-01T00:34:38.755Z,19.9
2016-06-01T00:34:48.758Z,19.9
2016-06-01T00:34:58.914Z,19.9
2016-06-01T00:35:08.742Z,19.8
2016-06-01T00:35:18.898Z,19.9
2016-06-01T00:35:28.930Z,19.8
2016-06-01T00:35:38.898Z,20
2016-06-01T00:35:48.917Z,19.8
2016-06-01T00:35:58.745Z,19.8
2016-06-01T00:36:08.886Z,19.8
2016-06-01T00:36:18.886Z,19.8
2016-06-01T00:36:28.776Z,19.8
2016-06-01T00:36:38.870Z,19.7
2016-06-01T00:36:48.748Z,19.6
2016-06-01T00:36:58.889Z,19.5
2016-06-01T00:37:08.889Z,19.6
2016-06-01T00:37:18.889Z,19.6
2016-06-01T00:37:28.857Z,19.5
2016-06-01T00:37:38.857Z,19.4
2016-06-01T00:37:48.703Z,19.4
2016-06-01T00:37:58.719Z,19.4
2016-06-01T00:38:08.859Z,19.5
2016-06-01T00:38:18.859Z,19.4
2016-06-01T00:38:28.922Z,19.5
2016-06-01T00:38:39.000Z,19.4
2016-06-01T00:38:49.128Z,19.6
2016-06-01T00:38:58.737Z,19.6
2016-06-01T00:39:09.378Z,19.5
2016-06-01T00:39:19.816Z,19.5
2016-06-01T00:39:29.003Z,19.5
2016-06-01T00:39:38.847Z,19.4
2016-06-01T00:39:48.834Z,19.4
2016-06-01T00:39:58.850Z,19.4
2016-06-01T00:40:08.834Z,19.4
2016-06-01T00:40:18.819Z,19.4
2016-06-01T00:40:28.834Z,19.4
2016-06-01T00:40:38.678Z,19.4
2016-06-01T00:40:48.822Z,19.3
2016-06-01T00:40:58.822Z,19.4
2016-06-01T00:41:08.868Z,19.4
2016-06-01T00:41:18.806Z,19.4
2016-06-01T00:41:28.822Z,19.4
2016-06-01T00:41:38.822Z,19.6
2016-06-01T00:41:48.808Z,19.5
2016-06-01T00:41:58.792Z,19.4
2016-06-01T00:42:08.808Z,19.3
2016-06-01T00:42:18.792Z,19.3
2016-06-01T00:42:28.855Z,19.3
2016-06-01T00:42:38.792Z,19.3
2016-06-01T00:42:48.811Z,19.3
2016-06-01T00:42:58.795Z,19.4
2016-06-01T00:43:08.795Z,19.4
2016-06-01T00:43:18.655Z,19.4
2016-06-01T00:43:28.780Z,19.4
2016-06-01T00:43:38.780Z,19.4
2016-06-01T00:43:48.688Z,19.4
2016-06-01T00:43:58.782Z,19.5
2016-06-01T00:44:08.782Z,19.5
2016-06-01T00:44:18.766Z,19.5
2016-06-01T00:44:28.641Z,19.6
2016-06-01T00:44:38.469Z,19.4
2016-06-01T00:44:48.957Z,19.4
2016-06-01T00:44:58.628Z,19.5
2016-06-01T00:45:08.628Z,19.4
2016-06-01T00:45:18.753Z,19.6
2016-06-01T00:45:28.769Z,19.6
2016-06-01T00:45:38.753Z,19.7
2016-06-01T00:45:48.788Z,19.7
2016-06-01T00:45:58.600Z,19.6
2016-06-01T00:46:08.600Z,19.6
2016-06-01T00:46:18.741Z,19.7
2016-06-01T00:46:28.803Z,19.7
2016-06-01T00:46:38.741Z,19.8
2016-06-01T00:46:48.743Z,19.8
2016-06-01T00:46:58.743Z,19.8
2016-06-01T00:47:08.774Z,19.8
2016-06-01T00:47:18.571Z,19.9
2016-06-01T00:47:28.618Z,19.9
2016-06-01T00:47:38.727Z,20
2016-06-01T00:47:48.793Z,20
2016-06-01T00:47:58.730Z,19.9
2016-06-01T00:48:08.590Z,20
2016-06-01T00:48:18.715Z,20
2016-06-01T00:48:28.715Z,20.1
2016-06-01T00:48:38.777Z,20.2
2016-06-01T00:48:48.718Z,20.2
2016-06-01T00:48:58.718Z,20.2
2016-06-01T00:49:08.749Z,20.2
2016-06-01T00:49:18.546Z,20.3
2016-06-01T00:49:28.702Z,20.4
2016-06-01T00:49:38.702Z,20.4
2016-06-01T00:49:48.705Z,20.2
2016-06-01T00:49:58.689Z,20.4
2016-06-01T00:50:08.705Z,20.4
2016-06-01T00:50:18.549Z,20.5
2016-06-01T00:50:28.689Z,20.5
2016-06-01T00:50:38.721Z,20.5
2016-06-01T00:50:48.738Z,20.5
2016-06-01T00:50:58.379Z,20.5
2016-06-01T00:51:08.613Z,20.4
2016-06-01T00:51:18.519Z,20.3
2016-06-01T00:51:28.723Z,20.4
2016-06-01T00:51:38.660Z,20.5
2016-06-01T00:51:48.679Z,20.5
2016-06-01T00:51:58.507Z,20.5
2016-06-01T00:52:08.679Z,20.5
2016-06-01T00:52:18.366Z,20.5
2016-06-01T00:52:28.726Z,20.5
2016-06-01T00:52:38.679Z,20.7
2016-06-01T00:52:48.650Z,20.5
2016-06-01T00:52:58.697Z,20.5
2016-06-01T00:53:08.666Z,20.5
2016-06-01T00:53:18.650Z,20.6
2016-06-01T00:53:29.104Z,20.5
2016-06-01T00:53:38.666Z,20.6
2016-06-01T00:53:48.668Z,20.5
2016-06-01T00:53:59.512Z,20.5
2016-06-01T00:54:09.027Z,20.3
2016-06-01T00:54:18.871Z,20.4
2016-06-01T00:54:28.340Z,20.5
2016-06-01T00:54:38.949Z,20.6
2016-06-01T00:54:48.687Z,20.5
2016-06-01T00:54:58.624Z,20.4
2016-06-01T00:55:08.624Z,20.2
2016-06-01T00:55:18.484Z,20.3
2016-06-01T00:55:28.609Z,20.3
2016-06-01T00:55:38.484Z,20.3
2016-06-01T00:55:48.643Z,20.2
2016-06-01T00:55:58.455Z,20.5
2016-06-01T00:56:08.455Z,20.5
2016-06-01T00:56:18.627Z,20.4
2016-06-01T00:56:28.596Z,20.2
2016-06-01T00:56:38.612Z,20.3
2016-06-01T00:56:48.598Z,20.2
2016-06-01T00:56:58.582Z,20
2016-06-01T00:57:08.614Z,19.9
2016-06-01T00:57:18.598Z,19.8
2016-06-01T00:57:28.598Z,19.7
2016-06-01T00:57:38.582Z,19.8
2016-06-01T00:57:48.585Z,19.7
2016-06-01T00:57:58.429Z,19.6
2016-06-01T00:58:08.570Z,19.5
2016-06-01T00:58:18.601Z,19.4
2016-06-01T00:58:28.585Z,19.3
2016-06-01T00:58:38.570Z,19.4
2016-06-01T00:58:48.573Z,19.3
2016-06-01T00:58:58.573Z,19.3
2016-06-01T00:59:08.573Z,19.3
2016-06-01T00:59:18.573Z,19.2
2016-06-01T00:59:28.557Z,19
2016-06-01T00:59:38.854Z,19.1
2016-06-01T00:59:48.590Z,18.9
2016-06-01T00:59:58.543Z,18.9
2016-06-01T01:00:08.403Z,18.9
2016-06-01T01:00:18.559Z,18.9
2016-06-01T01:00:28.543Z,18.9
2016-06-01T01:00:38.543Z,18.9
2016-06-01T01:00:48.562Z,18.9
2016-06-01T01:00:58.531Z,18.9
2016-06-01T01:01:08.406Z,18.9
2016-06-01T01:01:18.546Z,19
2016-06-01T01:01:28.562Z,19
2016-06-01T01:01:38.531Z,19
2016-06-01T01:01:48.534Z,19
2016-06-01T01:01:58.393Z,19
2016-06-01T01:02:08.534Z,19.1
2016-06-01T01:02:18.534Z,19
2016-06-01T01:02:28.534Z,19.1
2016-06-01T01:02:38.362Z,19.1
2016-06-01T01:02:48.521Z,19
2016-06-01T01:02:58.506Z,19
2016-06-01T01:03:08.506Z,18.9
2016-06-01T01:03:18.506Z,19
2016-06-01T01:03:28.240Z,19
2016-06-01T01:03:38.818Z,19.1
2016-06-01T01:03:48.508Z,19.1
2016-06-01T01:03:58.351Z,19.2
2016-06-01T01:04:08.492Z,19.1
2016-06-01T01:04:18.492Z,19
2016-06-01T01:04:28.492Z,19.2
2016-06-01T01:04:38.476Z,19.1
2016-06-01T01:04:48.323Z,19.2
2016-06-01T01:04:58.495Z,19
2016-06-01T01:05:08.479Z,19
2016-06-01T01:05:18.479Z,18.9
2016-06-01T01:05:28.495Z,18.8
2016-06-01T01:05:38.542Z,18.7
2016-06-01T01:05:48.325Z,18.7
2016-06-01T01:05:58.466Z,18.7
2016-06-01T01:06:08.466Z,18.5
2016-06-01T01:06:18.481Z,18.5
2016-06-01T01:06:28.309Z,18.4
2016-06-01T01:06:38.481Z,18.3
2016-06-01T01:06:48.484Z,18.5
2016-06-01T01:06:58.516Z,18.5
2016-06-01T01:07:08.469Z,18.7
2016-06-01T01:07:18.453Z,18.6
2016-06-01T01:07:28.453Z,18.7
2016-06-01T01:07:38.469Z,18.7
2016-06-01T01:07:48.440Z,18.9
2016-06-01T01:07:58.440Z,18.8
2016-06-01T01:08:08.440Z,18.8
2016-06-01T01:08:18.456Z,19
2016-06-01T01:08:28.581Z,19
2016-06-01T01:08:39.097Z,19
2016-06-01T01:08:48.600Z,19.1
2016-06-01T01:08:59.115Z,19.1
2016-06-01T01:09:08.443Z,19.1
2016-06-01T01:09:18.428Z,19
2016-06-01T01:09:28.303Z,19.1
2016-06-01T01:09:38.272Z,19.1
2016-06-01T01:09:48.258Z,19
2016-06-01T01:09:58.414Z,19
2016-06-01T01:10:08.133Z,19
2016-06-01T01:10:18.430Z,19
2016-06-01T01:10:28.430Z,19.1
2016-06-01T01:10:38.399Z,19
2016-06-01T01:10:48.417Z,19
2016-06-01T01:10:58.323Z,19
2016-06-01T01:11:08.402Z,19
2016-06-01T01:11:18.402Z,19
2016-06-01T01:11:28.386Z,19
2016-06-01T01:11:38.433Z,19.1
2016-06-01T01:11:48.389Z,19.1
2016-06-01T01:11:58.686Z,19.2
2016-06-01T01:12:08.420Z,19.2
2016-06-01T01:12:18.233Z,19.2
2016-06-01T01:12:28.373Z,19.2
2016-06-01T01:12:38.233Z,19.2
2016-06-01T01:12:48.407Z,19.2
2016-06-01T01:12:58.438Z,19.3
2016-06-01T01:13:08.360Z,19.3
2016-06-01T01:13:18.375Z,19.3
2016-06-01T01:13:28.360Z,19.2
2016-06-01T01:13:38.453Z,19.2
2016-06-01T01:13:48.363Z,19.3
2016-06-01T01:13:58.394Z,19.3
2016-06-01T01:14:08.222Z,19.3
2016-06-01T01:14:18.425Z,19.3
2016-06-01T01:14:28.347Z,19.2
2016-06-01T01:14:38.363Z,19.3
2016-06-01T01:14:48.194Z,19.2
2016-06-01T01:14:58.413Z,19.3
2016-06-01T01:15:08.350Z,19.3
2016-06-01T01:15:18.334Z,19.3
2016-06-01T01:15:28.350Z,19.3
2016-06-01T01:15:38.366Z,19.3
2016-06-01T01:15:48.181Z,19.3
2016-06-01T01:15:58.337Z,19.3
2016-06-01T01:16:08.197Z,19.2
2016-06-01T01:16:18.322Z,19.2
2016-06-01T01:16:28.353Z,19.2
2016-06-01T01:16:38.462Z,19.2
2016-06-01T01:16:48.324Z,19.1
2016-06-01T01:16:58.339Z,19
2016-06-01T01:17:08.324Z,18.9
2016-06-01T01:17:18.605Z,18.9
2016-06-01T01:17:28.152Z,18.8
2016-06-01T01:17:38.168Z,18.9
2016-06-01T01:17:48.155Z,18.8
2016-06-01T01:17:58.171Z,18.8
2016-06-01T01:18:08.155Z,18.8
2016-06-01T01:18:18.296Z,18.8
2016-06-01T01:18:28.296Z,19
2016-06-01T01:18:38.327Z,19
2016-06-01T01:18:48.139Z,19
2016-06-01T01:18:58.141Z,19
2016-06-01T01:19:08.141Z,19.1
2016-06-01T01:19:18.329Z,19
2016-06-01T01:19:28.282Z,19
2016-06-01T01:19:38.282Z,19
2016-06-01T01:19:48.285Z,19
2016-06-01T01:19:58.301Z,19
2016-06-01T01:20:08.269Z,19
2016-06-01T01:20:18.254Z,19.1
2016-06-01T01:20:28.269Z,19.2
2016-06-01T01:20:38.129Z,19.2
2016-06-01T01:20:48.272Z,19.1
2016-06-01T01:20:58.241Z,19
2016-06-01T01:21:08.241Z,19
2016-06-01T01:21:18.350Z,19.1
2016-06-01T01:21:28.257Z,19.2
2016-06-01T01:21:38.241Z,19.2
2016-06-01T01:21:48.085Z,19.2
2016-06-01T01:21:58.353Z,19.1
2016-06-01T01:22:08.244Z,18.9
2016-06-01T01:22:18.228Z,19
2016-06-01T01:22:28.088Z,18.9
2016-06-01T01:22:38.182Z,18.9
2016-06-01T01:22:48.244Z,18.9
2016-06-01T01:22:58.074Z,19
2016-06-01T01:23:08.215Z,19
2016-06-01T01:23:18.152Z,19
2016-06-01T01:23:27.918Z,19
2016-06-01T01:23:38.059Z,19
2016-06-01T01:23:48.390Z,19
2016-06-01T01:23:58.343Z,19.1
2016-06-01T01:24:08.312Z,19
2016-06-01T01:24:18.765Z,19
2016-06-01T01:24:28.608Z,19
2016-06-01T01:24:38.937Z,19
2016-06-01T01:24:48.202Z,19.2
2016-06-01T01:24:58.205Z,19.2
2016-06-01T01:25:08.190Z,19.2
2016-06-01T01:25:18.252Z,19.2
2016-06-01T01:25:28.049Z,19.2
2016-06-01T01:25:38.190Z,19.2
2016-06-01T01:25:48.190Z,19.2
2016-06-01T01:25:58.192Z,19.2
2016-06-01T01:26:07.910Z,19.2
2016-06-01T01:26:18.035Z,19.3
2016-06-01T01:26:28.176Z,19.4
2016-06-01T01:26:38.223Z,19.3
2016-06-01T01:26:48.020Z,19.3
2016-06-01T01:26:58.179Z,19.2
2016-06-01T01:27:08.163Z,19.2
2016-06-01T01:27:18.241Z,19.2
2016-06-01T01:27:28.148Z,19.3
2016-06-01T01:27:38.163Z,19.3
2016-06-01T01:27:48.148Z,19.1
2016-06-01T01:27:58.088Z,19.2
2016-06-01T01:28:08.151Z,19.3
2016-06-01T01:28:18.151Z,19.2
2016-06-01T01:28:28.151Z,19.2
2016-06-01T01:28:38.182Z,19.2
2016-06-01T01:28:48.151Z,19.2
2016-06-01T01:28:58.138Z,19.3
2016-06-01T01:29:08.138Z,19.3
2016-06-01T01:29:18.201Z,19.3
2016-06-01T01:29:27.982Z,19.3
2016-06-01T01:29:38.138Z,19.2
2016-06-01T01:29:48.122Z,19.3
2016-06-01T01:29:58.015Z,19.3
2016-06-01T01:30:08.156Z,19.2
2016-06-01T01:30:18.124Z,19.2
2016-06-01T01:30:27.968Z,19.2
2016-06-01T01:30:38.171Z,19.2
2016-06-01T01:30:48.140Z,19.2
2016-06-01T01:30:58.111Z,19
2016-06-01T01:31:08.111Z,19.1
2016-06-01T01:31:18.142Z,19.1
2016-06-01T01:31:28.095Z,19
2016-06-01T01:31:38.095Z,19.1
2016-06-01T01:31:48.095Z,19.2
2016-06-01T01:31:58.114Z,19.2
2016-06-01T01:32:08.098Z,19.2
2016-06-01T01:32:18.098Z,19.2
2016-06-01T01:32:27.786Z,19.3
2016-06-01T01:32:38.161Z,19.3
2016-06-01T01:32:47.958Z,19.3
2016-06-01T01:32:58.086Z,19.3
2016-06-01T01:33:08.086Z,19.3
2016-06-01T01:33:18.148Z,19.3
2016-06-01T01:33:28.070Z,19.2
2016-06-01T01:33:38.070Z,19.2
2016-06-01T01:33:48.070Z,19.2
2016-06-01T01:33:58.104Z,19.2
2016-06-01T01:34:08.073Z,19.2
2016-06-01T01:34:18.073Z,19.2
2016-06-01T01:34:28.057Z,19.2
2016-06-01T01:34:38.167Z,19.2
2016-06-01T01:34:48.057Z,19
2016-06-01T01:34:57.903Z,19
2016-06-01T01:35:08.044Z,19
2016-06-01T01:35:18.091Z,18.9
2016-06-01T01:35:28.059Z,18.8
2016-06-01T01:35:38.044Z,18.8
2016-06-01T01:35:48.044Z,18.7
2016-06-01T01:35:58.078Z,18.8
2016-06-01T01:36:08.062Z,18.8
2016-06-01T01:36:18.047Z,18.9
2016-06-01T01:36:28.031Z,18.7
2016-06-01T01:36:37.765Z,18.9
2016-06-01T01:36:48.015Z,19
2016-06-01T01:36:58.018Z,19
2016-06-01T01:37:08.034Z,19
2016-06-01T01:37:18.034Z,18.9
2016-06-01T01:37:28.018Z,19
2016-06-01T01:37:37.862Z,19
2016-06-01T01:37:48.034Z,19
2016-06-01T01:37:58.021Z,19.1
2016-06-01T01:38:08.006Z,19
2016-06-01T01:38:18.006Z,19
2016-06-01T01:38:28.365Z,19
2016-06-01T01:38:37.865Z,19
2016-06-01T01:38:47.709Z,19
2016-06-01T01:38:58.398Z,19.1
2016-06-01T01:39:07.883Z,19
2016-06-01T01:39:18.008Z,19.2
2016-06-01T01:39:28.227Z,19.2
2016-06-01T01:39:38.039Z,19.2
2016-06-01T01:39:47.992Z,19.2
2016-06-01T01:39:57.980Z,19.3
2016-06-01T01:40:07.964Z,19.2
2016-06-01T01:40:17.980Z,19.2
2016-06-01T01:40:27.980Z,19.2
2016-06-01T01:40:38.026Z,19.2
2016-06-01T01:40:47.823Z,19.2
2016-06-01T01:40:57.857Z,19.2
2016-06-01T01:41:07.966Z,19.2
2016-06-01T01:41:17.982Z,19.2
2016-06-01T01:41:27.950Z,19.2
2016-06-01T01:41:37.794Z,19.2
2016-06-01T01:41:47.966Z,19.2
2016-06-01T01:41:57.985Z,19.2
2016-06-01T01:42:07.969Z,19.2
2016-06-01T01:42:17.938Z,19.2
2016-06-01T01:42:27.813Z,19.1
2016-06-01T01:42:37.938Z,19.1
2016-06-01T01:42:48.000Z,19.2
2016-06-01T01:42:57.941Z,19.2
2016-06-01T01:43:07.941Z,19.2
2016-06-01T01:43:17.784Z,19.2
2016-06-01T01:43:27.941Z,19.2
2016-06-01T01:43:37.941Z,19.1
2016-06-01T01:43:47.909Z,19.2
2016-06-01T01:43:57.772Z,19.2
2016-06-01T01:44:07.912Z,19.2
2016-06-01T01:44:17.772Z,19.1
2016-06-01T01:44:27.912Z,19.1
2016-06-01T01:44:37.928Z,19.1
2016-06-01T01:44:47.928Z,19
2016-06-01T01:44:57.914Z,19
2016-06-01T01:45:07.899Z,19
2016-06-01T01:45:17.914Z,19
2016-06-01T01:45:27.899Z,19.1
2016-06-01T01:45:37.899Z,19.1
2016-06-01T01:45:47.899Z,19.1
2016-06-01T01:45:57.902Z,19.2
2016-06-01T01:46:07.917Z,19.1
2016-06-01T01:46:17.777Z,19.1
2016-06-01T01:46:27.761Z,19.1
2016-06-01T01:46:37.902Z,19.1
2016-06-01T01:46:47.871Z,19.1
2016-06-01T01:46:57.733Z,19.2
2016-06-01T01:47:07.874Z,19.1
2016-06-01T01:47:17.874Z,19.2
2016-06-01T01:47:27.717Z,19.2
2016-06-01T01:47:37.733Z,19.2
2016-06-01T01:47:48.030Z,19.1
2016-06-01T01:47:57.892Z,18.9
2016-06-01T01:48:07.861Z,18.7
2016-06-01T01:48:17.861Z,18.7
2016-06-01T01:48:27.861Z,18.6
2016-06-01T01:48:37.736Z,18.7
2016-06-01T01:48:47.705Z,18.7
2016-06-01T01:48:57.691Z,18.6
2016-06-01T01:49:07.863Z,18.7
2016-06-01T01:49:17.738Z,18.7
2016-06-01T01:49:27.691Z,18.7
2016-06-01T01:49:37.847Z,18.7
2016-06-01T01:49:47.691Z,18.8
2016-06-01T01:49:57.835Z,18.8
2016-06-01T01:50:07.835Z,18.8
2016-06-01T01:50:17.694Z,18.8
2016-06-01T01:50:27.819Z,18.8
2016-06-01T01:50:37.835Z,18.9
2016-06-01T01:50:47.694Z,18.9
2016-06-01T01:50:57.822Z,18.8
2016-06-01T01:51:07.869Z,18.8
2016-06-01T01:51:17.806Z,18.8
2016-06-01T01:51:27.822Z,18.9
2016-06-01T01:51:37.838Z,18.9
2016-06-01T01:51:47.806Z,18.9
2016-06-01T01:51:57.824Z,18.9
2016-06-01T01:52:07.808Z,18.9
2016-06-01T01:52:17.668Z,18.9
2016-06-01T01:52:27.793Z,18.8
2016-06-01T01:52:37.808Z,18.8
2016-06-01T01:52:47.793Z,18.7
2016-06-01T01:52:57.796Z,18.7
2016-06-01T01:53:07.796Z,18.7
2016-06-01T01:53:17.780Z,18.7
2016-06-01T01:53:28.233Z,18.7
2016-06-01T01:53:38.436Z,18.7
2016-06-01T01:53:48.468Z,18.7
2016-06-01T01:53:58.595Z,18.7
2016-06-01T01:54:08.001Z,18.7
2016-06-01T01:54:18.095Z,18.7
2016-06-01T01:54:27.642Z,18.8
2016-06-01T01:54:38.095Z,18.8
2016-06-01T01:54:47.767Z,18.8
2016-06-01T01:54:57.770Z,18.8
2016-06-01T01:55:07.770Z,18.8
2016-06-01T01:55:17.645Z,18.9
2016-06-01T01:55:27.754Z,18.8
2016-06-01T01:55:37.770Z,18.7
2016-06-01T01:55:47.754Z,18.8
2016-06-01T01:55:57.757Z,18.8
2016-06-01T01:56:07.757Z,18.8
2016-06-01T01:56:17.632Z,18.7
2016-06-01T01:56:27.741Z,18.6
2016-06-01T01:56:37.741Z,18.5
2016-06-01T01:56:47.741Z,18.4
2016-06-01T01:56:57.744Z,18.4
2016-06-01T01:57:07.744Z,18.4
2016-06-01T01:57:17.729Z,18.5
2016-06-01T01:57:27.729Z,18.5
2016-06-01T01:57:37.729Z,18.4
2016-06-01T01:57:47.760Z,18.4
2016-06-01T01:57:57.715Z,18.5
2016-06-01T01:58:07.559Z,18.5
2016-06-01T01:58:17.574Z,18.5
2016-06-01T01:58:27.574Z,18.6
2016-06-01T01:58:37.715Z,18.7
2016-06-01T01:58:47.715Z,18.7
2016-06-01T01:58:57.702Z,18.8
2016-06-01T01:59:07.702Z,18.8
2016-06-01T01:59:17.687Z,18.7
2016-06-01T01:59:27.702Z,18.8
2016-06-01T01:59:37.718Z,18.8
2016-06-01T01:59:47.718Z,18.8
2016-06-01T01:59:57.690Z,18.8
2016-06-01T02:00:07.705Z,18.9
2016-06-01T02:00:17.690Z,18.9
2016-06-01T02:00:27.565Z,19
2016-06-01T02:00:37.549Z,18.9
2016-06-01T02:00:47.690Z,18.9
2016-06-01T02:00:57.692Z,18.9
2016-06-01T02:01:07.676Z,19
2016-06-01T02:01:17.520Z,19
2016-06-01T02:01:27.661Z,19.1
2016-06-01T02:01:37.661Z,19
2016-06-01T02:01:47.520Z,19.1
2016-06-01T02:01:57.679Z,19.1
2016-06-01T02:02:07.382Z,19.1
2016-06-01T02:02:17.664Z,19.2
2016-06-01T02:02:27.710Z,19.2
2016-06-01T02:02:37.664Z,19.2
2016-06-01T02:02:47.523Z,19.2
2016-06-01T02:02:57.650Z,19
2016-06-01T02:03:07.650Z,19
2016-06-01T02:03:17.650Z,19
2016-06-01T02:03:27.650Z,19
2016-06-01T02:03:37.509Z,19.1
2016-06-01T02:03:47.634Z,19.1
2016-06-01T02:03:57.623Z,19.1
2016-06-01T02:04:07.482Z,19
2016-06-01T02:04:17.638Z,19
2016-06-01T02:04:27.670Z,19
2016-06-01T02:04:37.607Z,19.1
2016-06-01T02:04:47.654Z,19.1
2016-06-01T02:04:57.625Z,19
2016-06-01T02:05:07.625Z,19
2016-06-01T02:05:17.468Z,18.9
2016-06-01T02:05:27.609Z,18.9
2016-06-01T02:05:37.453Z,18.8
2016-06-01T02:05:47.609Z,18.7
2016-06-01T02:05:57.331Z,18.8
2016-06-01T02:06:07.471Z,18.8
2016-06-01T02:06:17.596Z,18.7
2016-06-01T02:06:27.643Z,18.7
2016-06-01T02:06:37.596Z,18.8
2016-06-01T02:06:47.612Z,18.7
2016-06-01T02:06:57.615Z,18.7
2016-06-01T02:07:07.599Z,18.7
2016-06-01T02:07:17.584Z,18.7
2016-06-01T02:07:27.584Z,18.7
2016-06-01T02:07:37.584Z,18.8
2016-06-01T02:07:47.443Z,18.6
2016-06-01T02:07:57.570Z,18.7
2016-06-01T02:08:07.570Z,18.5
2016-06-01T02:08:17.414Z,18.6
2016-06-01T02:08:27.289Z,18.7
2016-06-01T02:08:37.617Z,18.7
2016-06-01T02:08:48.445Z,18.7
2016-06-01T02:08:57.635Z,18.7
2016-06-01T02:09:07.588Z,18.5
2016-06-01T02:09:17.557Z,18.5
2016-06-01T02:09:27.432Z,18.4
2016-06-01T02:09:37.916Z,18.5
2016-06-01T02:09:47.557Z,18.5
2016-06-01T02:09:57.545Z,18.4
2016-06-01T02:10:07.389Z,18.4
2016-06-01T02:10:17.561Z,18.5
2016-06-01T02:10:27.482Z,18.5
2016-06-01T02:10:37.389Z,18.6
2016-06-01T02:10:47.545Z,18.5
2016-06-01T02:10:57.547Z,18.5
2016-06-01T02:11:07.531Z,18.5
2016-06-01T02:11:17.406Z,18.6
2016-06-01T02:11:27.375Z,18.7
2016-06-01T02:11:37.375Z,18.7
2016-06-01T02:11:47.547Z,18.5
2016-06-01T02:11:57.519Z,18.6
2016-06-01T02:12:07.394Z,18.7
2016-06-01T02:12:17.534Z,18.7
2016-06-01T02:12:27.581Z,18.7
2016-06-01T02:12:37.534Z,18.7
2016-06-01T02:12:47.362Z,18.7
2016-06-01T02:12:57.522Z,18.7
2016-06-01T02:13:07.506Z,18.5
2016-06-01T02:13:17.506Z,18.7
2016-06-01T02:13:27.490Z,18.6
2016-06-01T02:13:37.490Z,18.7
2016-06-01T02:13:47.490Z,18.6
2016-06-01T02:13:57.352Z,18.6
2016-06-01T02:14:07.492Z,18.6
2016-06-01T02:14:17.477Z,18.5
2016-06-01T02:14:27.524Z,18.5
2016-06-01T02:14:37.477Z,18.6